アシガバート の空港の天気 - METARとTAF

アシガバート空港 ( UTAA / ASB ) - トルクメニスタン アシガバート
飛行場実況気象(Metar)
観測時間04/25 21:00 +05 (04/25 16:00 UTC)
風向・風速北西 6m/s
視程10km以上
天気現象
全天の8割程度の雲 雲底高度 1520m
全天の8割程度の雲 雲底高度 3050m
気温23℃
湿度44%
気圧1018hPa
METARUTAA 251600Z 31011KT 9999 BKN050 BKN100 23/10 Q1018 R88/70D NOSIG
過去の天気等 Google飛行場航空写真 Wunderground天気予報

過去48時間のMETAR

飛行場予報(TAF)
発表時間: 4/25 15:30 +05 (4/25 10:30 UTC)
予報対象時間: 25日17時 +05 ~ 26日17時 +05
風向・風速北北西 5m/s 瞬間風速 10m/s
視程5,000m
全天の4割程度の積乱雲 雲底高度 1,520m
25日17時 +05 ~ 25日23時 +05 に一時的に
風向・風速西 8m/s 瞬間風速 13m/s
視程3,000m
天気現象低い風塵
25日17時 +05 ~ 25日23時 +05 に 確率 30% で一時的に
風向・風速不定 14m/s
視程3,000m
天気現象弱い雷雨
26日4時 +05 ~ 26日13時 +05 に一時的に
風向・風速西北西 9m/s 瞬間風速 14m/s
視程3,000m
天気現象弱い雨
全天の8割程度の雲 雲底高度 610m
26日5時 +05 ~ 26日11時 +05 に 確率 40% で一時的に
天気現象
TAF UTAA 251030Z 2512/2612 34010G20KT 5000 SCT050CB 530009
TEMPO 2512/2518 28016G26KT 3000 DRDU
PROB30 TEMPO 2512/2518 VRB28KT 3000 -TSRA
TEMPO 2523/2608 30018G28KT 3000 -RA BKN020
PROB40 TEMPO 2600/2606 TS